createdAt,value
2023-02-08T00:01:44.418Z,9.38
2023-02-08T00:05:47.756Z,8.68
2023-02-08T00:09:50.758Z,10.18
2023-02-08T00:13:54.084Z,11.27
2023-02-08T00:17:57.001Z,10.27
2023-02-08T00:21:59.961Z,10.52
2023-02-08T00:26:02.797Z,10.45
2023-02-08T00:30:06.042Z,10.43
2023-02-08T00:34:08.977Z,12.43
2023-02-08T00:38:12.192Z,12.27
2023-02-08T00:42:14.956Z,8.07
2023-02-08T00:46:17.936Z,11.60
2023-02-08T00:50:21.140Z,10.10
2023-02-08T00:54:23.975Z,15.27
2023-02-08T00:58:26.816Z,16.00
2023-02-08T01:02:29.712Z,16.70
2023-02-08T01:06:32.912Z,15.95
2023-02-08T01:10:36.331Z,13.35
2023-02-08T01:14:40.200Z,13.25
2023-02-08T01:18:45.965Z,16.20
2023-02-08T01:22:54.851Z,10.95
2023-02-08T01:26:59.331Z,13.88
2023-02-08T01:31:12.058Z,10.45
2023-02-08T01:35:16.176Z,10.02
2023-02-08T01:39:19.472Z,15.23
2023-02-08T01:43:28.941Z,11.32
2023-02-08T01:47:32.176Z,10.05
2023-02-08T01:51:44.330Z,9.27
2023-02-08T01:55:52.172Z,9.40
2023-02-08T01:59:59.892Z,8.77
2023-02-08T02:04:04.940Z,8.40
2023-02-08T02:08:08.275Z,11.85
2023-02-08T02:12:13.182Z,10.77
2023-02-08T02:16:17.747Z,12.00
2023-02-08T02:20:29.614Z,9.48
2023-02-08T02:24:48.751Z,8.82
2023-02-08T02:29:18.521Z,11.23
2023-02-08T02:33:47.791Z,14.88
2023-02-08T02:38:03.412Z,11.05
2023-02-08T02:42:47.308Z,11.73
2023-02-08T02:47:03.040Z,10.98
2023-02-08T02:51:30.991Z,10.45
2023-02-08T02:55:48.924Z,12.50
2023-02-08T03:00:49.125Z,12.13
2023-02-08T03:04:55.965Z,10.32
2023-02-08T03:09:51.854Z,8.80
2023-02-08T03:14:13.290Z,10.32
2023-02-08T03:18:37.396Z,9.90
2023-02-08T03:23:08.854Z,7.32
2023-02-08T03:27:18.058Z,7.60
2023-02-08T03:31:27.434Z,7.22
2023-02-08T03:35:38.702Z,7.05
2023-02-08T03:39:43.538Z,10.23
2023-02-08T03:44:00.135Z,12.38
2023-02-08T03:48:06.786Z,10.80
2023-02-08T03:52:19.302Z,11.52
2023-02-08T03:56:48.643Z,8.48
2023-02-08T04:01:20.925Z,9.38
2023-02-08T04:05:25.993Z,7.47
2023-02-08T04:09:29.572Z,8.88
2023-02-08T04:13:34.938Z,8.88
2023-02-08T04:17:38.428Z,6.80
2023-02-08T04:21:53.187Z,6.97
2023-02-08T04:25:57.332Z,7.60
2023-02-08T04:30:06.130Z,8.52
2023-02-08T04:34:13.398Z,9.20
2023-02-08T04:38:16.242Z,7.82
2023-02-08T04:42:35.535Z,8.73
2023-02-08T04:46:52.267Z,7.20
2023-02-08T04:50:56.898Z,7.78
2023-02-08T04:54:59.629Z,8.93
2023-02-08T04:59:09.499Z,7.10
2023-02-08T05:03:12.383Z,9.48
2023-02-08T05:07:15.906Z,8.27
2023-02-08T05:11:23.535Z,11.65
2023-02-08T05:15:26.679Z,7.05
2023-02-08T05:19:30.039Z,8.23
2023-02-08T05:23:35.513Z,10.80
2023-02-08T05:27:49.106Z,7.95
2023-02-08T05:31:51.941Z,7.25
2023-02-08T05:36:18.206Z,10.90
2023-02-08T05:40:21.614Z,6.78
2023-02-08T05:44:24.593Z,6.25
2023-02-08T05:48:27.616Z,8.32
2023-02-08T05:52:30.465Z,6.90
2023-02-08T05:56:33.881Z,7.93
2023-02-08T06:00:36.893Z,6.85
2023-02-08T06:04:39.780Z,7.95
2023-02-08T06:08:42.918Z,8.63
2023-02-08T06:12:45.668Z,7.93
2023-02-08T06:16:49.935Z,9.32
2023-02-08T06:20:54.277Z,6.80
2023-02-08T06:24:57.081Z,7.20
2023-02-08T06:29:00.390Z,7.45
2023-02-08T06:33:06.177Z,7.85
2023-02-08T06:37:09.668Z,9.27
2023-02-08T06:41:12.572Z,5.47
2023-02-08T06:45:15.458Z,10.52
2023-02-08T06:49:18.292Z,9.82
2023-02-08T06:53:21.641Z,8.55
2023-02-08T06:57:24.535Z,8.98
2023-02-08T07:01:27.753Z,8.18
2023-02-08T07:05:30.561Z,9.13
2023-02-08T07:09:35.298Z,9.38
2023-02-08T07:13:38.609Z,7.72
2023-02-08T07:17:41.475Z,7.45
2023-02-08T07:21:44.255Z,9.07
2023-02-08T07:25:55.866Z,11.07
2023-02-08T07:29:58.705Z,10.85
2023-02-08T07:34:01.618Z,12.05
2023-02-08T07:38:04.340Z,15.27
2023-02-08T07:42:09.540Z,15.85
2023-02-08T07:46:23.759Z,13.85
2023-02-08T07:50:26.570Z,13.90
2023-02-08T07:54:31.239Z,11.35
2023-02-08T07:58:34.161Z,11.15
2023-02-08T08:02:36.958Z,10.05
2023-02-08T08:06:39.861Z,13.23
2023-02-08T08:10:43.073Z,12.05
2023-02-08T08:14:45.962Z,8.63
2023-02-08T08:18:48.989Z,10.57
2023-02-08T08:22:51.860Z,15.20
2023-02-08T08:26:54.787Z,12.73
2023-02-08T08:30:57.601Z,14.73
2023-02-08T08:35:00.519Z,12.20
2023-02-08T08:39:03.560Z,13.82
2023-02-08T08:43:06.369Z,16.45
2023-02-08T08:47:09.978Z,17.95
2023-02-08T08:51:14.387Z,14.68
2023-02-08T08:55:17.154Z,15.77
2023-02-08T08:59:21.395Z,9.82
2023-02-08T09:03:24.298Z,14.73
2023-02-08T09:07:27.200Z,10.43
2023-02-08T09:11:29.986Z,10.00
2023-02-08T09:15:32.732Z,9.68
2023-02-08T09:19:35.487Z,9.50
2023-02-08T09:23:38.522Z,10.65
2023-02-08T09:27:41.508Z,9.65
2023-02-08T09:31:44.395Z,8.40
2023-02-08T09:35:49.601Z,7.13
2023-02-08T09:39:52.613Z,7.10
2023-02-08T09:44:11.399Z,8.40
2023-02-08T09:48:33.996Z,4.72
2023-02-08T09:52:44.817Z,9.38
2023-02-08T09:56:49.032Z,7.50
2023-02-08T10:00:53.506Z,8.05
2023-02-08T10:05:12.168Z,7.70
2023-02-08T10:09:18.805Z,4.82
2023-02-08T10:13:40.758Z,8.88
2023-02-08T10:17:44.093Z,6.57
2023-02-08T10:22:17.728Z,6.93
2023-02-08T10:26:31.426Z,7.13
2023-02-08T10:30:48.489Z,6.50
2023-02-08T10:34:51.451Z,7.30
2023-02-08T10:38:56.436Z,8.73
2023-02-08T10:43:15.289Z,8.40
2023-02-08T10:47:38.862Z,7.55
2023-02-08T10:51:42.039Z,6.20
2023-02-08T10:55:47.624Z,6.68
2023-02-08T10:59:58.871Z,6.22
2023-02-08T11:04:11.349Z,7.13
2023-02-08T11:08:24.335Z,6.38
2023-02-08T11:12:27.355Z,7.82
2023-02-08T11:16:30.311Z,6.45
2023-02-08T11:20:37.581Z,7.50
2023-02-08T11:24:43.235Z,7.40
2023-02-08T11:29:15.157Z,8.43
2023-02-08T11:33:22.800Z,8.68
2023-02-08T11:37:28.679Z,4.88
2023-02-08T11:41:31.894Z,5.53
2023-02-08T11:45:37.177Z,6.45
2023-02-08T11:49:43.010Z,5.00
2023-02-08T11:53:48.989Z,6.60
2023-02-08T11:58:14.070Z,6.63
2023-02-08T12:02:42.436Z,7.30
2023-02-08T12:07:15.553Z,10.90
2023-02-08T12:11:42.839Z,7.75
2023-02-08T12:16:01.308Z,6.30
2023-02-08T12:20:16.707Z,7.38
2023-02-08T12:24:31.572Z,6.90
2023-02-08T12:28:57.133Z,6.57
2023-02-08T12:33:12.086Z,5.95
2023-02-08T12:38:11.933Z,7.95
2023-02-08T12:42:24.086Z,10.85
2023-02-08T12:46:46.324Z,7.85
2023-02-08T12:51:07.368Z,9.50
2023-02-08T12:55:21.565Z,6.80
2023-02-08T12:59:33.256Z,9.60
2023-02-08T13:04:04.383Z,7.13
2023-02-08T13:08:34.632Z,7.53
2023-02-08T13:12:43.868Z,7.18
2023-02-08T13:16:52.188Z,8.40
2023-02-08T13:21:12.756Z,8.43
2023-02-08T13:25:30.331Z,7.85
2023-02-08T13:29:33.734Z,9.88
2023-02-08T13:33:59.285Z,10.02
2023-02-08T13:38:07.376Z,11.35
2023-02-08T13:42:27.568Z,9.30
2023-02-08T13:46:58.487Z,11.77
2023-02-08T13:51:02.588Z,7.50
2023-02-08T13:55:34.393Z,10.70
2023-02-08T13:59:41.408Z,8.40
2023-02-08T14:03:44.690Z,9.13
2023-02-08T14:07:48.625Z,8.77
2023-02-08T14:12:00.665Z,8.35
2023-02-08T14:16:32.622Z,12.68
2023-02-08T14:20:41.979Z,10.82
2023-02-08T14:25:09.739Z,8.00
2023-02-08T14:29:27.724Z,11.32
2023-02-08T14:33:35.000Z,6.72
2023-02-08T14:37:38.178Z,9.70
2023-02-08T14:41:51.852Z,9.82
2023-02-08T14:45:57.600Z,9.52
2023-02-08T14:50:15.932Z,9.18
2023-02-08T14:54:25.592Z,9.98
2023-02-08T14:58:35.528Z,11.63
2023-02-08T15:02:44.306Z,10.65
2023-02-08T15:07:08.665Z,8.63
2023-02-08T15:11:26.828Z,7.65
2023-02-08T15:15:34.630Z,12.32
2023-02-08T15:19:39.272Z,13.48
